Time;durP1;ratioP1;P1;durP2;ratioP2;P2;SDS_P1;SDS_P2;PMS_P1;PMS_P2;Temp;Humidity;BMP_temperature;BMP_pressure;BME280_temperature;BME280_humidity;BME280_pressure;Samples;Min_cycle;Max_cycle;Signal;HPM_P1;HPM_P2
2024/01/26 00:00:02;;;;;;;19.90;10.77;;;5.80;95.10;;;4.73;100.00;98944.81;5136551;27;20457;-71
2024/01/26 00:02:30;;;;;;;19.87;10.10;;;5.70;95.90;;;4.87;100.00;98945.25;5111515;27;20805;-74
2024/01/26 00:04:59;;;;;;;32.70;11.30;;;5.80;97.20;;;4.76;100.00;98947.16;5149083;27;20440;-76
2024/01/26 00:07:29;;;;;;;24.50;9.87;;;5.80;97.30;;;4.76;100.00;98943.66;5132270;27;20471;-72
2024/01/26 00:09:59;;;;;;;17.27;10.60;;;5.70;98.10;;;4.86;100.00;98948.94;5143092;27;20489;-72
2024/01/26 00:12:28;;;;;;;16.30;9.70;;;5.70;99.40;;;4.33;100.00;98885.44;5130871;27;20485;-72
2024/01/26 00:14:57;;;;;;;21.80;10.40;;;5.70;99.60;;;4.76;100.00;98947.16;5124157;27;20449;-69
2024/01/26 00:17:40;;;;;;;19.47;9.80;;;5.70;99.90;;;4.54;100.00;98957.38;5130513;27;21234;-72
2024/01/26 00:20:09;;;;;;;24.17;11.13;;;5.60;99.90;;;4.45;100.00;98946.75;5125245;27;20446;-73
2024/01/26 00:22:36;;;;;;;22.30;10.63;;;5.60;99.90;;;4.58;100.00;98943.69;5122573;27;20442;-72
2024/01/26 00:25:10;;;;;;;24.80;10.73;;;5.60;99.90;;;4.72;100.00;98942.31;5131232;27;20460;-73
2024/01/26 00:27:40;;;;;;;23.27;9.33;;;5.70;99.90;;;4.81;100.00;98947.56;5142560;27;20502;-73
2024/01/26 00:30:09;;;;;;;23.20;9.43;;;5.80;99.90;;;4.60;100.00;98896.19;5140994;27;20560;-72
2024/01/26 00:32:41;;;;;;;24.20;10.43;;;5.80;99.90;;;4.95;100.00;98938.13;5149909;27;20451;-70
2024/01/26 00:35:13;;;;;;;19.00;9.47;;;5.90;99.90;;;4.78;100.00;98947.88;5142785;27;20498;-72
2024/01/26 00:37:46;;;;;;;18.90;9.47;;;5.90;99.90;;;4.81;100.00;98944.88;5128379;27;20936;-72
2024/01/26 00:40:15;;;;;;;20.47;9.83;;;5.80;99.90;;;4.85;100.00;98936.53;5144320;27;21275;-74
2024/01/26 00:42:45;;;;;;;19.83;8.83;;;5.80;99.90;;;4.68;100.00;98925.69;5147347;27;20470;-72
2024/01/26 00:45:15;;;;;;;23.83;10.10;;;5.70;99.90;;;4.68;100.00;98933.72;5121829;27;20457;-74
2024/01/26 00:47:45;;;;;;;17.63;9.60;;;5.70;99.90;;;4.70;100.00;98934.41;5146785;27;20537;-72
2024/01/26 00:50:16;;;;;;;17.87;9.90;;;5.70;99.90;;;4.64;100.00;98935.88;5135957;27;20469;-72
2024/01/26 00:52:47;;;;;;;17.40;8.73;;;5.70;99.90;;;4.75;100.00;98921.38;5124742;27;20490;-73
2024/01/26 00:55:20;;;;;;;18.23;9.97;;;5.70;99.90;;;4.66;100.00;98930.38;5112785;27;20444;-73
2024/01/26 00:57:50;;;;;;;23.60;10.23;;;5.70;99.90;;;4.61;100.00;98924.63;5138545;27;20476;-71
2024/01/26 01:00:21;;;;;;;18.97;10.00;;;5.60;99.90;;;4.64;100.00;98932.38;5130755;27;20545;-71
2024/01/26 01:02:50;;;;;;;24.13;10.50;;;5.60;99.90;;;4.60;100.00;98928.28;5147330;27;20446;-73
2024/01/26 01:05:18;;;;;;;16.40;10.47;;;5.60;99.90;;;4.71;100.00;98928.06;5118882;27;20826;-72
2024/01/26 01:07:45;;;;;;;24.30;11.07;;;5.60;99.90;;;4.69;100.00;98927.38;5138848;27;20462;-71
2024/01/26 01:10:21;;;;;;;23.00;10.10;;;5.60;99.90;;;4.57;100.00;98932.16;5124012;27;21037;-73
2024/01/26 01:12:50;;;;;;;20.33;9.97;;;5.60;99.90;;;4.58;100.00;98927.63;5118785;27;21296;-70
2024/01/26 01:15:18;;;;;;;23.13;11.13;;;5.60;99.90;;;4.50;100.00;98928.38;5132437;27;20503;-70
2024/01/26 01:17:51;;;;;;;24.60;9.40;;;5.50;99.90;;;4.46;100.00;98927.03;5141449;27;20501;-73
2024/01/26 01:20:18;;;;;;;25.27;11.30;;;5.50;99.90;;;4.43;100.00;98925.47;5144572;27;20461;-75
2024/01/26 01:22:47;;;;;;;19.83;10.07;;;5.50;99.90;;;4.48;100.00;98925.03;5125280;27;21094;-72
2024/01/26 01:25:16;;;;;;;16.27;9.10;;;5.50;99.90;;;4.63;100.00;98933.38;5125528;27;20961;-73
2024/01/26 01:27:44;;;;;;;17.43;10.20;;;5.60;99.90;;;4.66;100.00;98922.34;5144115;27;20456;-74
2024/01/26 01:30:12;;;;;;;21.90;10.73;;;5.60;99.90;;;4.60;100.00;98934.50;5140419;27;20480;-73
2024/01/26 01:32:39;;;;;;;25.80;10.77;;;5.60;99.90;;;4.57;100.00;98931.28;5137958;27;20452;-75
2024/01/26 01:35:09;;;;;;;18.17;10.87;;;5.60;99.90;;;4.64;100.00;98927.00;5095985;27;20479;-74
2024/01/26 01:37:36;;;;;;;21.77;10.60;;;5.60;99.90;;;4.76;100.00;98924.94;5137280;27;20456;-74
2024/01/26 01:40:05;;;;;;;19.40;9.87;;;5.60;99.90;;;4.69;100.00;98924.69;5136805;27;20518;-73
2024/01/26 01:42:32;;;;;;;21.53;10.63;;;5.70;99.90;;;4.63;100.00;98918.13;5145396;27;20445;-74
2024/01/26 01:44:59;;;;;;;18.80;10.93;;;5.60;99.90;;;4.54;100.00;98917.22;5124442;27;20451;-74
2024/01/26 01:47:29;;;;;;;16.00;10.17;;;5.60;99.90;;;4.64;100.00;98916.31;5146574;27;20450;-73
2024/01/26 01:49:56;;;;;;;19.43;11.17;;;5.60;99.90;;;4.63;100.00;98917.31;5138509;27;21047;-73
2024/01/26 01:52:27;;;;;;;19.27;10.67;;;5.60;99.90;;;4.63;100.00;98919.97;5146951;27;20453;-74
2024/01/26 01:55:01;;;;;;;18.60;10.63;;;5.60;99.90;;;4.61;100.00;98924.63;5124039;27;20832;-75
2024/01/26 01:57:30;;;;;;;19.60;11.80;;;5.60;99.90;;;4.15;100.00;98861.34;5142933;27;20468;-74
2024/01/26 01:59:57;;;;;;;20.97;11.33;;;5.60;99.90;;;4.50;100.00;98906.97;5119836;27;20454;-75
2024/01/26 02:02:25;;;;;;;17.83;11.63;;;5.60;99.90;;;4.54;100.00;98913.69;5149370;27;20488;-73
2024/01/26 02:04:53;;;;;;;23.20;11.73;;;5.60;99.90;;;4.56;100.00;98905.53;5143221;27;21250;-69
2024/01/26 02:07:20;;;;;;;24.70;11.77;;;5.60;99.90;;;4.50;100.00;98906.97;5129653;27;20449;-75
2024/01/26 02:09:51;;;;;;;18.13;11.13;;;5.50;99.90;;;4.49;100.00;98899.94;5145127;27;20459;-74
2024/01/26 02:12:18;;;;;;;20.47;11.80;;;5.50;99.90;;;4.54;100.00;98913.69;5122435;27;20460;-76
2024/01/26 02:14:45;;;;;;;17.03;10.63;;;5.50;99.90;;;4.60;100.00;98906.88;5138335;27;20454;-74
2024/01/26 02:17:14;;;;;;;21.43;11.90;;;5.60;99.90;;;4.53;100.00;98899.47;5103158;27;20999;-72
2024/01/26 02:19:42;;;;;;;17.80;11.20;;;5.50;99.90;;;4.61;100.00;98900.53;5125664;27;20464;-74
2024/01/26 02:22:10;;;;;;;19.03;11.17;;;5.60;99.90;;;4.57;100.00;98893.81;5103337;27;20444;-75
2024/01/26 02:24:48;;;;;;;17.73;10.43;;;5.60;99.90;;;4.65;100.00;98900.06;5145210;27;20454;-74
2024/01/26 02:27:16;;;;;;;18.20;10.83;;;5.60;99.90;;;4.72;100.00;98902.97;5142919;27;20445;-74
2024/01/26 02:29:44;;;;;;;22.30;11.90;;;5.70;99.90;;;4.65;100.00;98900.06;5104483;27;20506;-72
2024/01/26 02:32:14;;;;;;;19.40;9.93;;;5.70;99.90;;;4.65;100.00;98910.78;5109247;27;20480;-74
2024/01/26 02:34:44;;;;;;;20.97;10.70;;;5.70;99.90;;;4.69;100.00;98908.63;5123033;27;20443;-75
2024/01/26 02:37:14;;;;;;;20.17;11.63;;;5.70;99.90;;;4.68;100.00;98894.41;5118170;27;20448;-74
2024/01/26 02:39:46;;;;;;;22.63;10.53;;;5.70;99.90;;;4.77;100.00;98900.66;5124422;27;20461;-75
2024/01/26 02:42:14;;;;;;;21.53;11.37;;;5.80;99.90;;;4.86;100.00;98895.38;5128087;27;20494;-73
2024/01/26 02:44:41;;;;;;;20.20;11.73;;;5.80;99.90;;;4.90;100.00;98892.22;5145633;27;20972;-75
2024/01/26 02:47:11;;;;;;;19.83;10.80;;;5.80;99.90;;;4.77;100.00;98889.94;5137785;27;20480;-74
2024/01/26 02:49:43;;;;;;;18.27;11.27;;;5.80;99.90;;;4.95;100.00;98891.75;5123324;27;20471;-73
2024/01/26 02:52:12;;;;;;;18.10;9.53;;;5.80;99.90;;;5.07;100.00;98903.84;5140729;27;20485;-76
2024/01/26 02:54:39;;;;;;;20.13;10.80;;;5.90;99.90;;;4.98;100.00;98899.47;5140632;27;20456;-76
2024/01/26 02:57:10;;;;;;;17.37;10.00;;;5.90;99.90;;;5.02;100.00;98898.16;5124636;27;20461;-75
2024/01/26 02:59:40;;;;;;;18.63;9.60;;;5.90;99.90;;;5.06;100.00;98894.16;5141970;27;20454;-74
2024/01/26 03:02:08;;;;;;;15.20;9.87;;;5.90;99.90;;;5.16;100.00;98903.94;5139456;27;20854;-72
2024/01/26 03:04:37;;;;;;;17.63;9.40;;;6.00;99.90;;;5.15;100.00;98905.75;5140390;27;20473;-73
2024/01/26 03:07:05;;;;;;;16.00;8.80;;;6.00;99.90;;;5.02;100.00;98884.75;5143470;27;20461;-74
2024/01/26 03:09:32;;;;;;;14.07;8.67;;;6.00;99.90;;;4.95;100.00;98899.78;5140268;27;20942;-72
2024/01/26 03:12:00;;;;;;;17.57;9.17;;;5.90;99.90;;;4.89;100.00;98895.03;5111322;27;20487;-73
2024/01/26 03:14:30;;;;;;;13.03;9.50;;;5.90;99.90;;;5.06;100.00;98891.47;5109715;28;20583;-74
2024/01/26 03:16:57;;;;;;;12.93;8.80;;;5.90;99.90;;;5.03;100.00;98902.50;5121750;27;20445;-74
2024/01/26 03:19:26;;;;;;;16.70;9.93;;;6.00;99.90;;;4.90;100.00;98902.09;5119434;27;20453;-71
2024/01/26 03:21:55;;;;;;;19.67;10.07;;;5.90;99.90;;;4.95;100.00;98899.78;5139385;27;20445;-74
2024/01/26 03:24:25;;;;;;;19.60;9.90;;;5.90;99.90;;;4.93;100.00;98885.72;5125811;27;20579;-75
2024/01/26 03:26:56;;;;;;;21.47;9.23;;;5.90;99.90;;;5.16;100.00;98907.47;5121161;27;20446;-75
2024/01/26 03:29:23;;;;;;;15.80;9.70;;;6.00;99.90;;;5.07;100.00;98898.50;5146341;27;21100;-76
2024/01/26 03:31:54;;;;;;;15.00;9.70;;;6.00;99.90;;;5.07;100.00;98898.50;5120465;27;20473;-71
2024/01/26 03:34:24;;;;;;;19.77;9.77;;;6.10;99.90;;;5.18;100.00;98900.09;5141470;27;20486;-75
2024/01/26 03:36:55;;;;;;;15.87;9.17;;;6.10;99.90;;;4.91;100.00;98856.41;5125374;27;20443;-75
2024/01/26 03:39:23;;;;;;;14.73;9.60;;;6.10;99.90;;;5.09;100.00;98891.19;5146451;27;20472;-72
2024/01/26 03:41:50;;;;;;;17.33;8.90;;;6.10;99.90;;;5.05;100.00;98881.75;5135602;27;20455;-72
2024/01/26 03:44:19;;;;;;;20.13;10.50;;;6.10;99.90;;;5.14;100.00;98882.63;5102447;28;20528;-74
2024/01/26 03:46:49;;;;;;;18.63;10.30;;;6.10;99.90;;;5.09;100.00;98885.81;5124008;27;20466;-73
2024/01/26 03:49:18;;;;;;;17.93;10.37;;;6.10;99.90;;;5.25;100.00;98903.81;5124692;27;20451;-73
2024/01/26 03:51:49;;;;;;;17.70;10.40;;;6.20;99.90;;;5.32;100.00;98900.50;5124196;27;20472;-74
2024/01/26 03:54:17;;;;;;;26.20;10.30;;;6.20;99.90;;;5.06;100.00;98843.25;5108791;27;20460;-73
2024/01/26 03:56:47;;;;;;;19.17;10.50;;;6.30;99.90;;;5.37;100.00;98879.41;5109781;27;20449;-74
2024/01/26 03:59:15;;;;;;;16.90;10.83;;;6.30;99.90;;;5.31;100.00;98899.66;5117059;27;20437;-74
2024/01/26 04:01:45;;;;;;;18.60;11.20;;;6.30;99.90;;;5.33;100.00;98894.97;5138979;27;20456;-71
2024/01/26 04:04:12;;;;;;;22.17;11.37;;;6.30;99.90;;;5.38;100.00;98895.34;5138806;27;20462;-72
2024/01/26 04:06:42;;;;;;;20.00;10.93;;;6.30;99.90;;;5.44;100.00;98888.47;5135110;27;20458;-72
2024/01/26 04:09:10;;;;;;;18.43;10.67;;;6.30;99.90;;;5.43;100.00;98896.69;5138258;27;20446;-73
2024/01/26 04:11:38;;;;;;;20.57;11.10;;;6.40;99.90;;;5.53;100.00;98894.72;5133182;27;20554;-74
2024/01/26 04:14:06;;;;;;;19.90;11.27;;;6.40;99.90;;;5.42;100.00;98882.44;5146381;27;20964;-71
2024/01/26 04:16:33;;;;;;;20.83;11.20;;;6.40;99.90;;;5.66;100.00;98902.31;5141180;27;20437;-72
2024/01/26 04:19:10;;;;;;;20.83;11.70;;;6.50;99.90;;;5.68;100.00;98890.41;5130825;27;21022;-74
2024/01/26 04:21:37;;;;;;;18.57;11.73;;;6.60;99.90;;;5.72;100.00;98898.16;5148218;27;20460;-74
2024/01/26 04:24:07;;;;;;;20.10;12.73;;;6.60;99.90;;;5.77;100.00;98903.84;5088011;27;20464;-73
2024/01/26 04:26:35;;;;;;;19.20;12.30;;;6.70;99.90;;;5.72;100.00;98900.84;5131067;27;20530;-72
2024/01/26 04:29:02;;;;;;;17.37;10.63;;;6.60;99.90;;;5.68;100.00;98890.41;5126538;27;20457;-75
2024/01/26 04:31:31;;;;;;;23.00;12.40;;;6.60;99.90;;;5.71;100.00;98904.53;5114002;27;20503;-73
2024/01/26 04:33:59;;;;;;;20.93;13.10;;;6.60;99.90;;;5.62;100.00;98891.06;5136330;27;20456;-75
2024/01/26 04:36:30;;;;;;;17.27;11.47;;;6.60;99.90;;;5.52;100.00;98868.91;5132812;27;21063;-75
2024/01/26 04:38:59;;;;;;;21.00;12.20;;;6.60;99.90;;;5.76;100.00;98897.66;5125906;27;20450;-71
2024/01/26 04:41:31;;;;;;;19.17;11.63;;;6.70;99.90;;;5.75;100.00;98895.13;5121571;27;20467;-73
2024/01/26 04:43:58;;;;;;;20.83;11.60;;;6.70;99.90;;;5.77;100.00;98893.13;5119064;27;20455;-72
2024/01/26 04:46:26;;;;;;;16.17;10.83;;;6.70;99.90;;;5.89;100.00;98893.66;5125080;27;20507;-76
2024/01/26 04:48:53;;;;;;;19.10;11.80;;;6.70;99.90;;;5.55;100.00;98830.22;5145435;27;20820;-76
2024/01/26 04:51:21;;;;;;;17.10;10.37;;;6.70;99.90;;;5.78;100.00;98890.28;5121163;27;20475;-74
2024/01/26 04:53:49;;;;;;;24.10;12.00;;;6.70;99.90;;;5.85;100.00;98895.84;5148077;27;20999;-75
2024/01/26 04:56:18;;;;;;;22.90;11.90;;;6.70;99.90;;;5.75;100.00;98895.13;5122812;27;20448;-73
2024/01/26 04:58:50;;;;;;;19.10;11.13;;;6.70;99.90;;;5.86;100.00;98897.53;5130271;27;20506;-72
2024/01/26 05:01:20;;;;;;;19.47;11.20;;;6.70;99.90;;;5.82;100.00;98896.16;5140420;27;20472;-73
2024/01/26 05:03:50;;;;;;;16.60;11.43;;;6.70;99.90;;;5.93;100.00;98903.91;5121948;27;20486;-75
2024/01/26 05:06:19;;;;;;;21.17;13.10;;;6.70;99.90;;;5.48;100.00;98846.97;5137135;27;20480;-71
2024/01/26 05:08:47;;;;;;;18.40;12.23;;;6.70;99.90;;;5.58;100.00;98825.38;5123700;27;20995;-72
2024/01/26 05:11:18;;;;;;;21.43;11.30;;;6.80;99.90;;;5.89;100.00;98896.34;5146685;27;20496;-73
2024/01/26 05:13:50;;;;;;;17.10;11.40;;;6.80;99.90;;;6.01;100.00;98889.69;5141596;27;20469;-72
2024/01/26 05:16:22;;;;;;;18.50;12.00;;;6.80;99.90;;;5.87;100.00;98877.75;5120826;27;20452;-72
2024/01/26 05:18:52;;;;;;;18.30;11.97;;;6.80;99.90;;;5.94;100.00;98881.44;5140475;27;20459;-72
2024/01/26 05:21:22;;;;;;;19.83;11.60;;;6.80;99.90;;;5.87;100.00;98883.13;5095186;27;20540;-75
2024/01/26 05:23:51;;;;;;;20.40;12.07;;;6.80;99.90;;;5.86;100.00;98886.81;5129336;27;20445;-75
2024/01/26 05:26:20;;;;;;;18.67;11.47;;;6.80;99.90;;;5.84;100.00;98877.22;5126420;27;20445;-74
2024/01/26 05:28:54;;;;;;;16.80;12.63;;;6.80;99.90;;;5.94;100.00;98872.56;5146823;27;20471;-72
2024/01/26 05:31:22;;;;;;;17.73;12.03;;;6.80;99.90;;;6.08;100.00;98873.78;5124477;27;20464;-74
2024/01/26 05:33:50;;;;;;;22.53;12.73;;;6.90;99.90;;;5.52;100.00;98805.44;5143942;27;20515;-72
2024/01/26 05:36:20;;;;;;;17.73;11.67;;;6.80;99.90;;;5.93;100.00;98874.41;5147836;27;20495;-73
2024/01/26 05:38:48;;;;;;;23.90;12.90;;;6.80;99.90;;;5.94;100.00;98877.94;5144225;27;20940;-76
2024/01/26 05:41:17;;;;;;;17.47;13.03;;;6.80;99.90;;;5.92;100.00;98883.44;5130218;27;20445;-76
2024/01/26 05:43:48;;;;;;;18.83;12.53;;;6.90;99.90;;;5.99;100.00;98878.25;5145130;27;20446;-78
2024/01/26 05:46:19;;;;;;;21.40;12.23;;;6.90;99.90;;;6.02;100.00;98869.09;5140385;27;20495;-72
2024/01/26 05:48:47;;;;;;;20.67;11.43;;;6.90;99.90;;;6.22;100.00;98875.00;5143608;27;20485;-74
2024/01/26 05:51:16;;;;;;;15.97;11.60;;;7.00;99.90;;;6.22;100.00;98873.13;5142859;27;20468;-74
2024/01/26 05:53:45;;;;;;;18.97;11.80;;;7.00;99.90;;;6.21;100.00;98879.50;5148656;27;20452;-74
2024/01/26 05:56:12;;;;;;;18.53;12.27;;;7.00;99.90;;;6.31;100.00;98884.72;5125794;27;21311;-75
2024/01/26 05:58:52;;;;;;;19.73;12.17;;;7.10;99.90;;;6.20;100.00;98859.03;5147549;27;20450;-73
2024/01/26 06:01:21;;;;;;;18.30;12.17;;;7.10;99.90;;;6.14;100.00;98878.50;5121620;27;20949;-73
2024/01/26 06:03:51;;;;;;;21.77;12.70;;;7.10;99.90;;;6.30;100.00;98872.31;5141928;27;20514;-75
2024/01/26 06:06:20;;;;;;;18.93;12.53;;;7.10;99.90;;;6.24;100.00;98868.44;5129973;27;20515;-78
2024/01/26 06:08:51;;;;;;;15.27;11.30;;;7.10;99.90;;;6.26;100.00;98870.13;5111778;27;20449;-74
2024/01/26 06:11:25;;;;;;;24.67;13.40;;;7.10;99.90;;;6.33;100.00;98871.13;5121241;27;20453;-77
2024/01/26 06:13:54;;;;;;;22.03;13.40;;;7.10;99.90;;;6.36;100.00;98871.63;5109312;27;20453;-72
2024/01/26 06:16:21;;;;;;;12.60;9.00;;;7.20;99.90;;;6.71;100.00;98879.50;5141792;27;20828;-75
2024/01/26 06:18:50;;;;;;;24.40;12.97;;;7.30;99.90;;;6.52;100.00;98878.84;5131288;27;20447;-79
2024/01/26 06:21:19;;;;;;;22.73;14.23;;;7.40;99.90;;;6.50;100.00;98877.31;5125398;27;20448;-79
2024/01/26 06:23:47;;;;;;;15.77;12.13;;;7.30;99.90;;;6.50;100.00;98862.06;5136995;27;20456;-83
2024/01/26 06:26:15;;;;;;;18.83;13.80;;;7.30;99.90;;;6.52;100.00;98864.56;5131305;27;20438;-77
2024/01/26 06:28:42;;;;;;;20.70;13.70;;;7.30;99.90;;;6.51;100.00;98858.38;5135877;27;20456;-75
2024/01/26 06:31:11;;;;;;;21.57;12.80;;;7.30;99.90;;;6.37;100.00;98851.00;5142760;27;20482;-75
2024/01/26 06:33:38;;;;;;;19.17;12.80;;;7.30;99.90;;;6.15;100.00;98791.63;5131073;27;20488;-76
2024/01/26 06:36:06;;;;;;;16.83;12.67;;;7.40;99.90;;;6.48;100.00;98850.66;5131350;27;20452;-76
2024/01/26 06:38:33;;;;;;;17.57;12.33;;;7.30;99.90;;;6.38;100.00;98839.25;5145577;27;20458;-73
2024/01/26 06:41:01;;;;;;;18.97;12.50;;;7.30;99.90;;;6.40;100.00;98842.59;5143337;27;20457;-77
2024/01/26 06:43:29;;;;;;;17.37;11.67;;;7.30;99.90;;;6.60;100.00;98861.91;5141436;27;20448;-75
2024/01/26 06:45:56;;;;;;;16.07;12.50;;;7.40;99.90;;;6.65;100.00;98847.97;5124001;27;20881;-75
2024/01/26 06:48:26;;;;;;;20.93;12.87;;;7.50;99.90;;;6.64;100.00;98855.16;5124776;27;20446;-76
2024/01/26 06:50:53;;;;;;;15.77;12.50;;;7.50;99.90;;;6.79;100.00;98849.97;5125954;27;20470;-75
2024/01/26 06:53:22;;;;;;;17.80;12.13;;;7.50;99.90;;;6.86;100.00;98849.25;5123974;27;20478;-74
2024/01/26 06:55:49;;;;;;;21.00;12.57;;;7.60;99.90;;;6.76;100.00;98847.63;5120310;27;20976;-76
2024/01/26 06:58:17;;;;;;;20.10;13.70;;;7.60;99.90;;;6.97;100.00;98851.59;5126337;27;20487;-76
2024/01/26 07:00:44;;;;;;;17.87;12.50;;;7.70;99.90;;;6.91;100.00;98842.38;5127070;27;20522;-77
2024/01/26 07:03:12;;;;;;;21.77;13.30;;;7.70;99.90;;;6.97;100.00;98851.59;5119600;27;21037;-76
2024/01/26 07:05:42;;;;;;;17.53;12.03;;;7.70;99.90;;;7.05;100.00;98854.28;5141655;27;20463;-74
2024/01/26 07:08:09;;;;;;;18.47;12.97;;;7.70;99.90;;;6.79;100.00;98823.09;5139795;27;21050;-75
2024/01/26 07:10:37;;;;;;;18.13;12.93;;;7.70;99.90;;;6.94;100.00;98857.31;5141019;27;20480;-81
2024/01/26 07:13:05;;;;;;;17.23;12.80;;;7.80;99.90;;;7.08;100.00;98858.44;5139559;27;20481;-78
2024/01/26 07:15:33;;;;;;;23.40;12.93;;;7.80;99.90;;;6.97;100.00;98854.28;5132310;27;20518;-71
2024/01/26 07:18:05;;;;;;;18.20;13.00;;;7.90;99.90;;;7.15;100.00;98864.81;5134173;27;20463;-71
2024/01/26 07:20:35;;;;;;;15.10;11.77;;;7.90;99.90;;;7.22;100.00;98859.59;5120498;27;20455;-72
2024/01/26 07:23:04;;;;;;;18.50;13.90;;;7.90;99.90;;;7.22;100.00;98859.59;5140743;27;20464;-71
2024/01/26 07:25:31;;;;;;;16.07;12.13;;;8.00;99.90;;;7.20;100.00;98866.97;5124888;27;20510;-72
2024/01/26 07:27:59;;;;;;;16.70;12.60;;;8.00;99.90;;;7.50;100.00;98868.06;5140152;27;20761;-72
2024/01/26 07:30:28;;;;;;;15.67;11.73;;;8.10;99.90;;;7.04;100.00;98804.22;5145731;27;20460;-72
2024/01/26 07:32:56;;;;;;;14.50;11.73;;;8.10;99.90;;;7.52;100.00;98865.19;5124834;27;20475;-71
2024/01/26 07:35:25;;;;;;;13.70;11.20;;;8.20;99.90;;;7.45;100.00;98864.22;5140014;27;20812;-72
2024/01/26 07:37:52;;;;;;;12.40;10.37;;;8.20;99.90;;;7.41;100.00;98846.75;5141933;27;20481;-71
2024/01/26 07:40:21;;;;;;;13.10;9.93;;;8.20;99.90;;;7.48;100.00;98855.78;5121643;27;20496;-69
2024/01/26 07:42:49;;;;;;;16.10;9.77;;;8.30;99.90;;;7.37;100.00;98857.88;5145556;27;20456;-70
2024/01/26 07:45:17;;;;;;;11.00;8.47;;;8.20;99.90;;;7.51;100.00;98853.59;5144066;27;20448;-70
2024/01/26 07:47:45;;;;;;;11.10;8.67;;;8.30;99.90;;;7.46;100.00;98847.06;5140352;27;20458;-72
2024/01/26 07:50:12;;;;;;;9.23;7.27;;;8.30;99.90;;;7.56;100.00;98841.47;5123134;27;21103;-78
2024/01/26 07:52:40;;;;;;;10.67;8.60;;;8.30;99.90;;;7.53;100.00;98839.97;5125730;27;23222;-72
2024/01/26 07:55:10;;;;;;;13.20;8.17;;;8.40;99.90;;;7.63;100.00;98835.19;5124062;27;20460;-78
2024/01/26 07:57:38;;;;;;;10.13;7.53;;;8.40;99.90;;;7.67;100.00;98818.75;5120843;27;20447;-78
2024/01/26 08:00:08;;;;;;;10.30;7.70;;;8.50;99.90;;;7.65;100.00;98824.28;5137320;27;20436;-75
2024/01/26 08:02:36;;;;;;;7.73;6.93;;;8.50;99.90;;;7.73;100.00;98824.22;5116835;27;20473;-74
2024/01/26 08:05:04;;;;;;;8.87;7.90;;;8.50;99.90;;;7.71;100.00;98815.50;5142424;27;20562;-74
2024/01/26 08:07:49;;;;;;;7.40;5.90;;;8.60;99.80;;;7.68;100.00;98815.84;5144243;27;20439;-75
2024/01/26 08:10:17;;;;;;;7.37;6.30;;;8.50;99.90;;;7.92;100.00;98811.34;5134530;27;20531;-74
2024/01/26 08:12:46;;;;;;;5.90;5.30;;;8.70;99.90;;;7.96;100.00;98814.50;5119529;27;20463;-75
2024/01/26 08:15:13;;;;;;;5.17;4.67;;;8.70;98.80;;;7.88;100.00;98815.38;5139717;27;20458;-75
2024/01/26 08:17:41;;;;;;;5.30;4.80;;;8.70;98.10;;;7.98;100.00;98817.88;5144380;27;20443;-74
2024/01/26 08:20:10;;;;;;;8.87;5.13;;;8.70;97.80;;;7.97;100.00;98805.44;5140838;27;20460;-75
2024/01/26 08:22:44;;;;;;;5.90;4.50;;;8.80;97.60;;;7.98;100.00;98809.78;5127762;27;20621;-74
2024/01/26 08:25:11;;;;;;;5.77;4.80;;;8.90;96.90;;;7.75;100.00;98763.03;5141193;27;20457;-73
2024/01/26 08:27:39;;;;;;;4.53;4.10;;;8.90;96.90;;;7.98;100.00;98789.09;5123371;27;20438;-75
2024/01/26 08:30:09;;;;;;;6.70;3.93;;;8.90;96.30;;;8.13;100.00;98793.69;5138583;27;20456;-77
2024/01/26 08:32:37;;;;;;;4.20;3.60;;;9.00;96.40;;;8.26;100.00;98780.47;5123894;27;20569;-78
2024/01/26 08:35:09;;;;;;;3.97;2.90;;;9.10;95.80;;;8.40;100.00;98777.97;5146516;27;20456;-76
2024/01/26 08:37:36;;;;;;;3.60;2.83;;;9.20;95.20;;;8.53;98.99;98780.06;5141405;27;20462;-75
2024/01/26 08:40:06;;;;;;;3.23;2.93;;;9.30;94.40;;;8.75;98.66;98772.94;5145087;27;20469;-76
2024/01/26 08:42:33;;;;;;;5.77;3.53;;;9.50;94.40;;;8.56;97.60;98780.53;5142154;27;20468;-76
2024/01/26 08:45:01;;;;;;;3.00;2.60;;;9.50;93.60;;;8.59;98.36;98779.34;5147275;27;20445;-77
2024/01/26 08:47:31;;;;;;;4.30;2.40;;;9.50;93.90;;;8.79;97.33;98769.69;5129349;27;20456;-77
2024/01/26 08:49:58;;;;;;;2.50;2.30;;;9.60;93.70;;;8.71;97.40;98775.16;5143093;27;20463;-75
2024/01/26 08:52:25;;;;;;;3.50;2.23;;;9.60;93.20;;;8.86;97.31;98766.25;5140403;27;20487;-78
2024/01/26 08:54:52;;;;;;;2.60;2.40;;;9.60;93.60;;;9.07;95.84;98777.13;5134267;27;20446;-77
2024/01/26 08:57:20;;;;;;;4.10;1.80;;;9.80;93.10;;;9.03;95.59;98765.06;5143941;27;20535;-77
2024/01/26 08:59:47;;;;;;;2.33;1.70;;;9.90;92.60;;;8.82;96.61;98773.03;5143265;27;20471;-75
2024/01/26 09:02:15;;;;;;;1.90;1.80;;;9.80;92.70;;;9.11;94.88;98782.13;5140662;27;20467;-79
2024/01/26 09:04:44;;;;;;;3.67;2.23;;;9.90;92.40;;;8.98;96.68;98780.13;5126078;27;20456;-78
2024/01/26 09:07:11;;;;;;;5.23;2.20;;;9.90;92.50;;;9.04;95.68;98782.06;5125693;27;20447;-78
2024/01/26 09:09:39;;;;;;;5.50;2.07;;;9.90;92.50;;;9.06;95.09;98786.25;5146330;27;20456;-78
2024/01/26 09:12:07;;;;;;;2.70;2.30;;;10.00;91.60;;;9.00;95.39;98786.16;5141987;27;20444;-77
2024/01/26 09:14:35;;;;;;;1.47;1.37;;;9.90;92.50;;;9.00;95.37;98768.09;5129044;27;20443;-72
2024/01/26 09:17:02;;;;;;;1.87;1.77;;;9.90;92.20;;;8.89;95.30;98769.41;5119878;27;20446;-75
2024/01/26 09:19:29;;;;;;;2.03;1.80;;;9.90;92.20;;;9.20;94.73;98776.44;5148064;27;20451;-77
2024/01/26 09:21:58;;;;;;;1.53;1.43;;;9.90;92.40;;;8.96;95.08;98768.69;5141457;27;20463;-77
2024/01/26 09:24:25;;;;;;;2.13;1.50;;;9.90;92.30;;;8.95;97.14;98761.59;5138857;27;20453;-78
2024/01/26 09:26:55;;;;;;;1.73;1.50;;;9.80;93.20;;;8.87;97.45;98754.44;5140357;27;20468;-73
2024/01/26 09:29:26;;;;;;;1.93;1.50;;;9.70;93.60;;;8.88;97.63;98746.19;5120843;27;20444;-74
2024/01/26 09:31:56;;;;;;;4.17;1.60;;;9.70;93.50;;;9.17;96.61;98746.31;5142170;27;20443;-76
2024/01/26 09:34:24;;;;;;;2.23;1.60;;;9.90;93.70;;;9.09;97.78;98754.53;5137944;27;20541;-75
2024/01/26 09:36:51;;;;;;;1.80;1.67;;;9.90;93.60;;;9.07;97.77;98738.53;5125864;27;20457;-76
2024/01/26 09:39:21;;;;;;;2.50;2.00;;;9.90;93.60;;;9.21;97.13;98744.94;5138334;27;20454;-75
2024/01/26 09:41:49;;;;;;;3.00;2.70;;;10.00;92.80;;;9.29;96.68;98736.72;5128411;27;22483;-74
2024/01/26 09:44:16;;;;;;;2.77;1.80;;;10.10;93.10;;;9.32;96.87;98739.03;5129414;27;20467;-71
2024/01/26 09:46:45;;;;;;;1.50;1.40;;;10.10;92.50;;;9.38;96.01;98731.25;5138157;27;20455;-74
2024/01/26 09:49:12;;;;;;;2.23;1.50;;;10.10;92.50;;;9.39;94.35;98733.72;5141911;27;20453;-74
2024/01/26 09:51:41;;;;;;;1.70;1.47;;;10.30;91.80;;;9.65;93.64;98721.56;5141497;27;20460;-76
2024/01/26 09:54:09;;;;;;;1.60;1.50;;;10.30;91.70;;;9.66;93.37;98730.50;5142279;27;21150;-77
2024/01/26 09:56:38;;;;;;;6.00;1.60;;;10.40;91.50;;;9.91;91.42;98712.88;5142375;27;20903;-77
2024/01/26 09:59:07;;;;;;;1.83;1.20;;;10.60;90.90;;;9.89;91.59;98708.72;5139631;27;20448;-77
2024/01/26 10:01:35;;;;;;;1.93;1.20;;;10.60;90.70;;;9.90;90.83;98711.19;5123025;27;20963;-75
2024/01/26 10:04:04;;;;;;;1.40;1.30;;;10.70;90.40;;;10.23;88.86;98725.16;5120114;27;20820;-75
2024/01/26 10:06:32;;;;;;;1.80;1.50;;;10.90;90.20;;;10.26;89.15;98709.41;5120162;27;20464;-73
2024/01/26 10:08:59;;;;;;;1.80;1.57;;;11.00;90.00;;;10.32;87.67;98694.28;5111438;27;20501;-75
2024/01/26 10:11:27;;;;;;;1.90;1.10;;;11.10;89.80;;;10.28;88.70;98699.25;5120688;27;20943;-76
2024/01/26 10:13:56;;;;;;;1.57;1.40;;;11.10;89.80;;;9.95;87.88;98651.25;5135798;27;20471;-76
2024/01/26 10:16:23;;;;;;;2.40;1.60;;;11.10;89.30;;;10.28;88.92;98685.75;5140776;27;20474;-75
2024/01/26 10:18:51;;;;;;;1.33;1.23;;;11.10;89.70;;;10.16;88.99;98688.16;5122027;27;20948;-76
2024/01/26 10:21:20;;;;;;;2.80;1.40;;;11.00;89.50;;;10.47;87.15;98670.75;5118636;27;20511;-76
2024/01/26 10:23:47;;;;;;;4.47;1.60;;;11.20;89.50;;;10.10;88.47;98663.81;5138786;27;20429;-73